Grayson, KY

8:59 AM EDT on July 25, 2014 (GMT -0400)
Prestonsburg (KK22) Elev 1220 ft | 37.75 °N, 82.64 °W | Change Station

Current weather conditions updated 324 days ago

Fog
Fog
67 °F
Feels Like 67 °F
N
2
Wind Variable Wind from West
Gusts mph

Today is forecast to be Much Warmer than yesterday.

Today
High -- | Low -- °F
--% Chance of Precip.
Yesterday
High -- | Low -- °F
Precip. -- in
6:28 AM 8:47 PM
Waning Crescent, 2% visible
Pressure 30.01 in
Visibility 10.0 miles
Clouds Scattered Clouds 4200 ft
Scattered Clouds 5000 ft
Dew Point 57 °F
Humidity 74%
Rainfall 0.00 in
Snow Depth Not available.
UV 7 out of 12
Pollen 1.50 out of 12
Air Quality Not available.
Flu Activity Not available.
METAR KK22 031835Z AUTO 36004KT 10SM SCT042 SCT050 25/16 A3001 RMK AO2 T02480158

More Conditions Fewer Conditions

Pressure 30.01 in
Visibility 10.0 miles
Clouds Scattered Clouds 4200 ft
Scattered Clouds 5000 ft
Dew Point 57 °F
Humidity 74%
Rainfall 0.00 in
Snow Depth Not available.
UV 7 out of 12
Pollen 1.50 out of 12
Air Quality Not available.
Flu Activity Not available.
METAR KK22 031835Z AUTO 36004KT 10SM SCT042 SCT050 25/16 A3001 RMK AO2 T02480158

More Conditions Fewer Conditions

10-Day Weather Forecast

Almanac

Astronomy

Jul. 25, 2014 Rise Set
Actual Time 6:28 AM EDT 8:47 PM EDT
Civil Twilight 5:58 AM EDT 9:17 PM EDT
Nautical Twilight 5:21 AM EDT 9:54 PM EDT
Astronomical Twilight 4:40 AM EDT 10:35 PM EDT
Moon 5:26 AM EDT 7:45 PM EDT
Length of Visible Light 15h 19m
Length of Day
14h 19m
Tomorrow will be 1m 39s shorter.
Waning Crescent, 2% of the Moon is Illuminated
Today
Waning Crescent
Jul 26
New
Aug 3
First Quarter
Aug 10
Full
Aug 17
Last Quarter

Today's Extremes

State Highs State Lows

Community

WunderPhotos

Upload Photos

1,737,308 photos uploaded!

Nearby

Snow Depth

Station Depth Elevation
No new snow has been reported.

Earthquake Activity

City Distance Mag. Time & Date
No recent earthquake activity has been reported nearby.
Minimum magnitude displayed is 2.5.

Coastal Water Temperatures

Place Temperature
No Stations Reporting

Nearby Weather Stations

Station Location Temp. Dew Point Humidity Wind Precip. Elev Updated Type
Green, Olive Hill, KY 62.1 °F 54 °F 74% North  at  0.0 mph 0.00 in / hr 883 ft 8:52 AM EDT Normal
Boy Scout from Ashland, Ashland, KY 61.1 °F 61 °F 100% ENE  at  0.0 mph 0.00 in / hr 689 ft 8:59 AM EDT Normal
Flatwoods y, Flatwoods,, KY 63.7 °F 60 °F 88% WNW  at  0.0 mph - / hr 656 ft 7:48 AM CDT Normal
SouthAshland, Ashland, KY 63.1 °F 61 °F 92% North  at  0.0 mph 0.00 in / hr 700 ft 8:56 AM EDT Normal
Sherwood Forest, Ashland, KY 61.7 °F 60 °F 93% North  at  0.0 mph 0.00 in / hr 673 ft 8:59 AM EDT Rapid Fire
Westmoreland, Huntington, WV 63.6 °F 61 °F 92% SSE  at  0.0 mph 0.00 in / hr 548 ft 8:59 AM EDT Rapid Fire

Show More Stations Show Fewer Stations